Time;durP1;ratioP1;P1;durP2;ratioP2;P2;SDS_P1;SDS_P2;PMS_P1;PMS_P2;Temp;Humidity;BMP_temperature;BMP_pressure;BME280_temperature;BME280_humidity;BME280_pressure;Samples;Min_cycle;Max_cycle;Signal;HPM_P1;HPM_P2
2022/03/02 00:02:38;;;;;;;19.10;13.93;;;;;;;4.55;40.30;98883.16;8346162;28;20239;-65
2022/03/02 00:06:43;;;;;;;19.83;14.10;;;;;;;4.68;39.68;98880.53;8347318;28;20539;-65
2022/03/02 00:10:46;;;;;;;18.07;14.43;;;;;;;4.84;39.12;98881.28;8347403;28;20235;-65
2022/03/02 00:14:49;;;;;;;20.97;15.33;;;;;;;5.07;42.50;98875.97;8347226;28;20267;-64
2022/03/02 00:18:52;;;;;;;21.70;15.07;;;;;;;4.92;39.71;98880.38;8347520;28;20403;-64
2022/03/02 00:22:56;;;;;;;19.23;14.63;;;;;;;4.93;39.48;98862.41;8347510;28;20231;-64
2022/03/02 00:26:59;;;;;;;19.77;15.57;;;;;;;4.93;39.30;98859.84;8347032;28;20243;-65
2022/03/02 00:31:03;;;;;;;19.20;15.13;;;;;;;4.85;40.08;98859.88;8346980;28;20228;-64
2022/03/02 00:35:07;;;;;;;19.37;14.90;;;;;;;4.86;39.49;98853.03;8348331;28;20235;-65
2022/03/02 00:39:11;;;;;;;19.13;15.00;;;;;;;4.78;39.18;98847.97;8352876;28;20310;-64
2022/03/02 00:43:14;;;;;;;17.07;13.63;;;;;;;4.78;39.24;98842.84;8353276;28;20238;-64
2022/03/02 00:47:17;;;;;;;18.90;13.90;;;;;;;4.77;39.60;98833.41;8352967;28;20542;-65
2022/03/02 00:51:21;;;;;;;21.43;14.33;;;;;;;4.79;39.28;98836.81;8352778;28;20232;-64
2022/03/02 00:55:25;;;;;;;17.70;13.77;;;;;;;4.82;39.06;98843.66;8352576;28;20235;-65
2022/03/02 00:59:29;;;;;;;19.10;13.63;;;;;;;4.73;39.06;98865.09;8352633;28;20236;-67
2022/03/02 01:03:32;;;;;;;13.27;10.73;;;;;;;4.71;39.04;98869.41;8352265;28;20511;-65
2022/03/02 01:07:35;;;;;;;13.50;10.00;;;;;;;4.68;39.33;98864.28;8352531;28;20232;-64
2022/03/02 01:11:40;;;;;;;11.83;9.80;;;;;;;4.58;39.50;98866.03;8351850;28;20255;-65
2022/03/02 01:15:43;;;;;;;16.40;10.23;;;;;;;4.53;39.44;98861.78;8352431;28;20520;-64
2022/03/02 01:19:46;;;;;;;14.97;11.63;;;;;;;4.07;40.16;98856.06;8350797;28;20236;-65
2022/03/02 01:23:49;;;;;;;14.67;11.30;;;;;;;4.38;40.00;98850.78;8351647;28;20240;-64
2022/03/02 01:27:53;;;;;;;13.67;11.17;;;;;;;4.49;39.86;98846.44;8351180;28;20232;-64
2022/03/02 01:31:56;;;;;;;14.93;11.83;;;;;;;4.36;40.57;98851.63;8351567;28;20235;-64
2022/03/02 01:35:59;;;;;;;16.20;10.90;;;;;;;4.44;39.94;98837.91;8351327;28;20235;-64
2022/03/02 01:40:02;;;;;;;16.47;12.30;;;;;;;4.46;39.83;98830.22;8351367;28;20239;-64
2022/03/02 01:44:07;;;;;;;15.47;11.53;;;;;;;4.21;39.76;98820.09;8352272;28;20462;-64
2022/03/02 01:48:10;;;;;;;16.07;12.03;;;;;;;3.98;40.40;98803.94;8352216;28;20236;-64
2022/03/02 01:52:13;;;;;;;13.10;11.70;;;;;;;4.08;40.89;98806.47;8353023;28;20223;-64
2022/03/02 01:56:17;;;;;;;14.57;12.17;;;;;;;4.20;40.42;98802.97;8352792;28;20204;-64
2022/03/02 02:00:23;;;;;;;15.23;11.87;;;;;;;4.33;40.24;98802.94;8352378;28;20239;-64
2022/03/02 02:04:26;;;;;;;15.77;12.03;;;;;;;4.35;40.28;98803.78;8350696;28;20286;-64
2022/03/02 02:08:29;;;;;;;16.67;12.57;;;;;;;4.27;40.64;98801.25;8350562;28;20535;-64
2022/03/02 02:12:33;;;;;;;15.30;12.30;;;;;;;4.27;40.63;98804.66;8350185;28;20224;-65
2022/03/02 02:16:37;;;;;;;14.40;11.50;;;;;;;4.25;40.79;98808.94;8350323;28;20235;-64
2022/03/02 02:20:42;;;;;;;14.87;11.97;;;;;;;4.24;40.82;98803.81;8349961;28;20236;-64
2022/03/02 02:24:45;;;;;;;17.63;13.57;;;;;;;4.27;41.01;98798.69;8349683;28;20232;-64
2022/03/02 02:28:48;;;;;;;16.17;12.43;;;;;;;4.21;41.12;98796.16;8349894;28;20240;-64
2022/03/02 02:32:51;;;;;;;18.93;13.27;;;;;;;4.25;40.80;98792.72;8349728;28;20239;-64
2022/03/02 02:36:56;;;;;;;16.13;12.60;;;;;;;4.21;40.70;98784.19;8349442;28;20235;-64
2022/03/02 02:40:58;;;;;;;18.17;11.90;;;;;;;4.26;41.16;98790.13;8349781;28;20232;-64
2022/03/02 02:45:01;;;;;;;17.10;13.33;;;;;;;4.31;40.98;98785.84;8349565;28;20227;-64
2022/03/02 02:49:04;;;;;;;17.20;12.80;;;;;;;4.26;41.09;98786.72;8348852;28;20427;-64
2022/03/02 02:53:11;;;;;;;14.40;12.00;;;;;;;4.01;41.38;98789.41;8348940;28;20539;-64
2022/03/02 02:57:14;;;;;;;15.03;12.07;;;;;;;4.07;41.27;98786.84;8348733;28;20232;-64
2022/03/02 03:01:18;;;;;;;16.93;12.53;;;;;;;4.21;41.37;98780.78;8347584;28;20573;-64
2022/03/02 03:05:22;;;;;;;16.73;11.83;;;;;;;4.13;41.15;98777.41;8348587;28;20582;-64
2022/03/02 03:09:27;;;;;;;22.03;13.10;;;;;;;3.94;41.22;98782.63;8348290;28;20445;-64
2022/03/02 03:13:31;;;;;;;17.37;13.20;;;;;;;3.96;41.66;98780.03;8348527;28;20231;-64
2022/03/02 03:17:34;;;;;;;14.33;12.23;;;;;;;4.09;41.25;98777.44;8347801;28;20231;-65
2022/03/02 03:21:37;;;;;;;16.47;12.00;;;;;;;3.75;41.42;98773.28;8347989;28;20585;-65
2022/03/02 03:25:41;;;;;;;15.57;12.07;;;;;;;4.00;41.35;98764.66;8348134;28;20425;-64
2022/03/02 03:29:44;;;;;;;16.50;11.70;;;;;;;4.11;41.46;98756.88;8347923;28;20236;-64
2022/03/02 03:33:47;;;;;;;15.63;11.67;;;;;;;4.02;41.88;98759.53;8347612;28;20232;-64
2022/03/02 03:37:50;;;;;;;14.80;12.37;;;;;;;4.04;42.08;98753.53;8347824;28;20236;-64
2022/03/02 03:41:55;;;;;;;14.10;11.73;;;;;;;4.05;41.58;98750.09;8347697;28;20239;-64
2022/03/02 03:45:58;;;;;;;15.30;12.30;;;;;;;4.07;41.60;98750.06;8347606;28;20243;-64
2022/03/02 03:50:02;;;;;;;14.83;11.53;;;;;;;4.01;41.11;98745.84;8347396;28;20232;-64
2022/03/02 03:54:06;;;;;;;17.27;11.93;;;;;;;3.81;41.61;98729.72;8347284;28;20254;-64
2022/03/02 03:58:10;;;;;;;16.53;12.23;;;;;;;3.87;41.49;98732.25;8347231;28;20235;-64
2022/03/02 04:02:13;;;;;;;17.07;13.07;;;;;;;3.99;41.42;98732.19;8347347;28;20421;-64
2022/03/02 04:06:17;;;;;;;20.00;12.63;;;;;;;3.98;41.63;98725.38;8347662;28;20228;-64
2022/03/02 04:10:20;;;;;;;18.33;13.50;;;;;;;3.70;42.00;98711.84;8349042;28;20556;-64
2022/03/02 04:14:24;;;;;;;17.23;13.03;;;;;;;3.81;41.45;98706.66;8354142;28;20543;-64
2022/03/02 04:18:27;;;;;;;17.07;12.40;;;;;;;3.92;42.02;98698.06;8354002;28;20242;-64
2022/03/02 04:22:30;;;;;;;15.73;12.77;;;;;;;3.98;41.93;98689.50;8353873;28;20232;-64
2022/03/02 04:26:33;;;;;;;16.17;12.60;;;;;;;4.02;41.76;98692.88;8353039;28;20235;-65
2022/03/02 04:30:38;;;;;;;15.40;11.57;;;;;;;4.13;41.54;98692.78;8353550;28;20228;-66
2022/03/02 04:34:41;;;;;;;14.83;12.57;;;;;;;4.14;41.56;98689.38;8353580;28;20492;-64
2022/03/02 04:38:44;;;;;;;16.93;12.13;;;;;;;4.05;41.14;98670.63;8353183;28;20236;-65
2022/03/02 04:42:47;;;;;;;16.23;11.90;;;;;;;4.07;41.78;98683.44;8353307;28;20243;-64
2022/03/02 04:46:51;;;;;;;17.03;12.17;;;;;;;4.12;41.85;98684.25;8352707;28;20236;-64
2022/03/02 04:50:54;;;;;;;14.03;11.27;;;;;;;4.21;41.86;98686.75;8352758;28;20236;-64
2022/03/02 04:55:06;;;;;;;17.53;11.70;;;;;;;4.13;41.85;98685.09;8352497;28;20231;-64
2022/03/02 04:59:09;;;;;;;15.83;11.07;;;;;;;4.09;42.21;98691.97;8352415;28;20236;-64
2022/03/02 05:03:14;;;;;;;12.33;10.03;;;;;;;4.08;42.14;98680.88;8352383;28;20232;-64
2022/03/02 05:07:17;;;;;;;15.20;10.97;;;;;;;4.01;42.24;98678.34;8352567;28;20278;-64
2022/03/02 05:11:20;;;;;;;12.13;9.90;;;;;;;4.07;42.05;98668.94;8352018;28;20239;-64
2022/03/02 05:15:24;;;;;;;14.87;10.23;;;;;;;4.08;42.47;98670.63;8352271;28;20231;-64
2022/03/02 05:19:29;;;;;;;16.97;10.43;;;;;;;4.04;42.60;98673.22;8352212;28;20240;-64
2022/03/02 05:23:31;;;;;;;14.50;10.33;;;;;;;3.99;42.61;98680.06;8342773;28;20231;-64
2022/03/02 05:27:35;;;;;;;16.53;10.90;;;;;;;4.06;42.18;98679.19;8352111;28;20231;-64
2022/03/02 05:31:38;;;;;;;12.90;10.23;;;;;;;4.05;42.58;98678.31;8351665;28;20565;-64
2022/03/02 05:35:43;;;;;;;14.60;10.60;;;;;;;4.07;42.92;98678.31;8351781;28;20236;-64
2022/03/02 05:39:46;;;;;;;14.60;10.50;;;;;;;4.14;42.56;98677.41;8351759;28;20232;-65
2022/03/02 05:43:49;;;;;;;13.33;9.13;;;;;;;4.08;42.43;98683.44;8351553;28;20231;-64
2022/03/02 05:47:52;;;;;;;13.17;9.40;;;;;;;4.19;42.50;98682.50;8350937;28;20240;-64
2022/03/02 05:51:56;;;;;;;11.37;9.70;;;;;;;4.06;42.86;98684.31;8351331;28;20239;-64
2022/03/02 05:55:59;;;;;;;11.80;9.57;;;;;;;4.11;42.98;98691.09;8350766;28;20234;-64
2022/03/02 06:00:08;;;;;;;13.00;10.20;;;;;;;4.21;43.08;98694.47;8350417;28;20328;-64
2022/03/02 06:04:11;;;;;;;16.90;10.40;;;;;;;4.19;42.77;98687.63;8350251;28;20294;-64
2022/03/02 06:08:17;;;;;;;16.10;11.63;;;;;;;4.21;42.79;98691.91;8350190;28;20236;-64
2022/03/02 06:12:20;;;;;;;15.33;11.73;;;;;;;4.25;43.27;98688.44;8349454;28;20243;-64
2022/03/02 06:16:24;;;;;;;14.57;11.43;;;;;;;4.24;43.27;98696.97;8350112;28;20228;-64
2022/03/02 06:20:28;;;;;;;14.50;11.50;;;;;;;4.18;43.58;98688.50;8349965;28;20235;-64
2022/03/02 06:24:33;;;;;;;23.40;13.13;;;;;;;4.20;43.57;98687.63;8349423;28;20220;-66
2022/03/02 06:28:36;;;;;;;17.97;13.63;;;;;;;4.36;43.05;98682.38;8349887;28;20232;-65
2022/03/02 06:32:39;;;;;;;17.50;13.10;;;;;;;4.22;43.08;98675.63;8349300;28;20254;-64
2022/03/02 06:36:42;;;;;;;17.57;13.43;;;;;;;3.68;44.24;98686.22;8349408;28;20239;-64
2022/03/02 06:41:01;;;;;;;20.20;12.50;;;;;;;3.70;44.40;98671.69;8349470;28;20243;-65
2022/03/02 06:45:12;;;;;;;20.07;12.73;;;;;;;4.17;44.01;98673.97;8349752;28;20227;-64
2022/03/02 06:49:26;;;;;;;18.20;13.13;;;;;;;4.28;43.61;98679.88;8349041;28;20239;-64
2022/03/02 06:53:35;;;;;;;16.37;11.50;;;;;;;4.37;43.39;98692.63;8349119;28;20239;-64
2022/03/02 06:57:47;;;;;;;17.10;12.27;;;;;;;4.48;43.66;98683.13;8348627;28;20227;-65
2022/03/02 07:01:51;;;;;;;16.00;11.93;;;;;;;4.48;43.38;98689.97;8345966;28;20547;-64
2022/03/02 07:05:55;;;;;;;19.53;13.50;;;;;;;4.64;43.43;98696.66;8348598;28;20228;-64
2022/03/02 07:09:59;;;;;;;19.00;12.43;;;;;;;4.78;41.92;98690.56;8348158;28;20299;-64
2022/03/02 07:14:04;;;;;;;18.50;12.47;;;;;;;4.82;41.87;98689.69;8348539;28;20227;-64
2022/03/02 07:18:07;;;;;;;20.93;12.27;;;;;;;4.83;41.65;98688.81;8348610;28;20239;-64
2022/03/02 07:22:12;;;;;;;20.00;12.00;;;;;;;4.76;42.40;98682.88;8348131;28;20228;-64
2022/03/02 07:26:19;;;;;;;19.10;11.77;;;;;;;4.59;43.11;98680.47;8347021;28;20238;-65
2022/03/02 07:30:24;;;;;;;17.97;11.97;;;;;;;4.99;42.22;98674.97;8347212;28;20228;-65
2022/03/02 07:34:27;;;;;;;18.23;11.90;;;;;;;5.39;41.99;98683.94;8347084;28;20239;-64
2022/03/02 07:38:31;;;;;;;22.30;11.93;;;;;;;5.52;41.91;98682.91;8338588;28;20239;-64
2022/03/02 07:42:34;;;;;;;23.93;11.63;;;;;;;5.64;41.34;98684.47;8343952;28;20224;-65
2022/03/02 07:46:39;;;;;;;21.03;12.07;;;;;;;5.57;40.40;98688.00;8346009;28;20236;-65
2022/03/02 07:50:43;;;;;;;23.53;13.03;;;;;;;5.72;40.82;98687.78;8346588;28;20262;-64
2022/03/02 07:54:52;;;;;;;24.37;12.23;;;;;;;5.84;41.75;98684.19;8346857;28;20318;-65
2022/03/02 07:58:56;;;;;;;17.93;12.60;;;;;;;6.16;40.85;98685.50;8346615;28;20232;-65
2022/03/02 08:03:02;;;;;;;16.87;12.23;;;;;;;5.93;39.47;98680.66;8344541;28;20393;-65
2022/03/02 08:07:06;;;;;;;22.17;12.23;;;;;;;6.26;39.73;98685.34;8346656;28;20234;-65
2022/03/02 08:11:09;;;;;;;21.03;11.57;;;;;;;6.19;39.88;98688.03;8346787;28;20231;-65
2022/03/02 08:15:13;;;;;;;18.20;12.27;;;;;;;6.41;39.32;98678.25;8345259;28;20224;-65
2022/03/02 08:19:19;;;;;;;19.93;12.33;;;;;;;6.52;38.90;98678.91;8344625;28;20235;-64
2022/03/02 08:23:25;;;;;;;24.37;13.70;;;;;;;6.29;39.10;98674.16;8346197;28;20255;-64
2022/03/02 08:27:30;;;;;;;21.47;12.10;;;;;;;5.89;39.23;98674.72;8346878;28;20236;-65
2022/03/02 08:31:37;;;;;;;21.03;13.10;;;;;;;5.16;40.60;98674.78;8346428;28;20523;-65
2022/03/02 08:35:41;;;;;;;24.20;13.20;;;;;;;5.59;40.20;98663.13;8346915;28;20415;-65
2022/03/02 08:39:44;;;;;;;19.93;12.70;;;;;;;5.90;40.01;98660.97;8346506;28;20425;-65
2022/03/02 08:43:49;;;;;;;21.83;12.97;;;;;;;5.97;39.90;98649.75;8346714;28;20236;-65
2022/03/02 08:47:52;;;;;;;22.13;12.30;;;;;;;5.49;40.19;98652.97;8346514;28;20228;-65
2022/03/02 08:51:57;;;;;;;16.20;12.07;;;;;;;5.86;39.48;98649.91;8346822;28;20527;-65
2022/03/02 08:56:01;;;;;;;26.40;12.20;;;;;;;6.54;38.89;98645.44;8347624;28;20238;-65
2022/03/02 09:00:07;;;;;;;27.23;12.37;;;;;;;5.88;39.96;98637.00;8352564;28;20239;-65
2022/03/02 09:04:14;;;;;;;23.20;13.20;;;;;;;6.64;38.79;98647.84;8350263;28;20234;-64
2022/03/02 09:08:19;;;;;;;24.87;10.27;;;;;;;9.69;51.52;98645.81;8351499;28;20566;-66
2022/03/02 09:12:22;;;;;;;16.10;11.23;;;;;;;9.87;38.32;98641.00;8351630;28;20232;-60
2022/03/02 09:16:25;;;;;;;17.00;11.73;;;;;;;10.72;38.77;98652.09;8352020;28;20228;-60
2022/03/02 09:20:30;;;;;;;23.77;11.33;;;;;;;11.23;40.92;98645.97;8351985;28;20240;-61
2022/03/02 09:24:35;;;;;;;20.33;12.43;;;;;;;9.31;34.69;98645.19;8351532;28;20223;-61
2022/03/02 09:28:40;;;;;;;19.00;12.93;;;;;;;8.98;35.36;98640.06;8351361;28;20236;-60
2022/03/02 09:32:43;;;;;;;21.07;13.07;;;;;;;8.74;35.72;98636.41;8351423;28;20251;-61
2022/03/02 09:36:47;;;;;;;19.03;12.03;;;;;;;8.53;36.18;98631.78;8351303;28;20232;-61
2022/03/02 09:40:53;;;;;;;17.83;12.37;;;;;;;8.82;35.69;98632.78;8350740;28;20232;-60
2022/03/02 09:45:01;;;;;;;20.00;13.57;;;;;;;8.46;35.88;98635.44;8350895;28;20227;-60
2022/03/02 09:49:06;;;;;;;18.40;13.73;;;;;;;8.61;35.69;98632.47;8350873;28;20236;-60
2022/03/02 09:53:14;;;;;;;22.80;12.47;;;;;;;8.91;35.88;98630.81;8351068;28;20232;-60
2022/03/02 09:57:20;;;;;;;20.63;12.47;;;;;;;8.75;35.46;98621.75;8351119;28;20232;-61
2022/03/02 10:01:26;;;;;;;23.03;13.53;;;;;;;8.80;35.53;98630.25;8350706;28;20238;-60
2022/03/02 10:05:31;;;;;;;23.97;13.03;;;;;;;8.79;35.71;98626.78;8349383;28;20232;-60
2022/03/02 10:09:34;;;;;;;21.83;13.20;;;;;;;9.11;35.13;98627.66;8349951;28;20231;-61
2022/03/02 10:13:38;;;;;;;24.37;13.40;;;;;;;8.93;34.98;98623.84;8350358;28;20247;-61
2022/03/02 10:17:44;;;;;;;20.07;12.80;;;;;;;9.03;35.44;98619.28;8350290;28;20236;-60
2022/03/02 10:22:06;;;;;;;22.63;12.93;;;;;;;8.93;33.84;98621.28;8350129;28;20286;-61
2022/03/02 10:26:16;;;;;;;19.80;12.70;;;;;;;8.79;34.11;98636.28;8350209;28;20229;-60
2022/03/02 10:30:21;;;;;;;21.63;13.23;;;;;;;8.65;32.81;98628.91;8350274;28;20236;-60
2022/03/02 10:34:32;;;;;;;19.47;13.07;;;;;;;8.92;32.48;98629.91;8349863;28;20235;-61
2022/03/02 10:38:45;;;;;;;18.83;13.57;;;;;;;8.65;32.84;98628.06;8341578;28;20397;-60
2022/03/02 10:42:56;;;;;;;20.47;13.63;;;;;;;8.83;31.73;98624.97;8349154;28;20236;-59
2022/03/02 10:47:04;;;;;;;18.53;13.03;;;;;;;8.87;31.64;98613.69;8348925;28;20239;-59
2022/03/02 10:51:07;;;;;;;17.40;13.13;;;;;;;8.66;31.22;98611.66;8348632;28;20238;-58
2022/03/02 10:55:13;;;;;;;20.00;12.90;;;;;;;8.68;31.47;98599.56;8349057;28;20228;-59
2022/03/02 10:59:18;;;;;;;15.37;12.30;;;;;;;9.11;31.33;98595.81;8348896;28;20535;-59
2022/03/02 11:03:27;;;;;;;19.50;13.30;;;;;;;8.97;31.81;98591.88;8348891;28;20228;-58
2022/03/02 11:07:31;;;;;;;22.40;12.60;;;;;;;8.31;32.77;98582.44;8348560;28;20220;-59
2022/03/02 11:11:36;;;;;;;16.60;12.47;;;;;;;8.45;32.44;98582.09;8347899;28;20231;-59
2022/03/02 11:15:50;;;;;;;18.70;12.03;;;;;;;8.33;32.78;98573.75;8348286;28;20267;-59
2022/03/02 11:19:57;;;;;;;16.63;12.00;;;;;;;8.79;32.92;98572.56;8346941;28;20232;-59
2022/03/02 11:24:04;;;;;;;16.23;12.57;;;;;;;8.88;32.90;98568.03;8347544;28;20228;-59
2022/03/02 11:28:07;;;;;;;28.70;14.10;;;;;;;9.13;33.34;98565.59;8348177;28;20239;-59
2022/03/02 11:32:14;;;;;;;30.03;13.53;;;;;;;9.40;33.66;98545.84;8348048;28;20238;-60
2022/03/02 11:36:20;;;;;;;21.47;13.20;;;;;;;9.43;33.97;98542.34;8348265;28;20228;-59
2022/03/02 11:40:38;;;;;;;18.00;12.77;;;;;;;9.43;32.85;98545.75;8348074;28;20231;-64
2022/03/02 11:44:43;;;;;;;18.83;12.97;;;;;;;9.45;34.14;98538.81;8341355;28;20511;-64
2022/03/02 11:48:48;;;;;;;18.87;12.77;;;;;;;9.47;33.78;98531.84;8349463;28;20429;-65
2022/03/02 11:52:53;;;;;;;20.93;13.23;;;;;;;9.18;34.05;98524.97;8347805;28;20250;-65
2022/03/02 11:57:02;;;;;;;19.47;12.77;;;;;;;9.32;32.96;98522.81;8347715;28;20227;-65
2022/03/02 12:01:06;;;;;;;22.00;12.77;;;;;;;9.40;33.09;98520.00;8347633;28;20228;-66
2022/03/02 12:05:10;;;;;;;17.77;12.73;;;;;;;9.92;33.19;98526.13;8348086;28;20234;-65
2022/03/02 12:09:28;;;;;;;20.33;12.87;;;;;;;9.77;32.25;98519.69;8347591;28;20419;-65
2022/03/02 12:13:32;;;;;;;17.47;13.17;;;;;;;9.74;32.60;98516.34;8346518;28;20235;-68
2022/03/02 12:17:36;;;;;;;21.27;13.63;;;;;;;9.78;33.35;98523.13;8347244;28;20235;-63
2022/03/02 12:21:39;;;;;;;20.20;13.13;;;;;;;9.43;33.00;98516.50;8347496;28;20239;-63
2022/03/02 12:25:47;;;;;;;18.67;13.23;;;;;;;9.62;33.44;98516.75;8346992;28;20243;-63
2022/03/02 12:29:55;;;;;;;19.63;13.13;;;;;;;9.15;32.85;98507.81;8346982;28;20236;-63
2022/03/02 12:34:02;;;;;;;24.10;13.23;;;;;;;9.39;33.62;98495.88;8352825;28;20531;-62
2022/03/02 12:38:08;;;;;;;17.80;12.50;;;;;;;9.76;32.76;98499.88;8350023;28;20224;-63
2022/03/02 12:42:12;;;;;;;18.27;12.30;;;;;;;9.75;31.84;98481.84;8352326;28;20269;-63
2022/03/02 12:46:15;;;;;;;22.80;11.60;;;;;;;9.89;32.03;98489.97;8352007;28;20291;-63
2022/03/02 12:50:20;;;;;;;15.17;11.60;;;;;;;9.93;31.14;98485.56;8352180;28;20414;-62
2022/03/02 12:54:23;;;;;;;16.77;12.03;;;;;;;10.16;31.03;98474.41;8351838;28;20228;-63
2022/03/02 12:58:27;;;;;;;18.37;12.03;;;;;;;10.04;30.85;98480.03;8349544;28;20235;-65
2022/03/02 13:02:32;;;;;;;15.93;11.60;;;;;;;10.37;30.37;98472.84;8351757;28;20228;-66
2022/03/02 13:06:38;;;;;;;18.93;11.40;;;;;;;10.49;29.31;98468.97;8343727;28;20220;-65
2022/03/02 13:10:43;;;;;;;16.23;12.00;;;;;;;10.73;29.88;98464.66;8351629;28;20251;-65
2022/03/02 13:14:47;;;;;;;15.37;11.60;;;;;;;10.36;29.01;98466.00;8348887;28;20278;-59
2022/03/02 13:18:52;;;;;;;15.43;11.10;;;;;;;10.78;29.09;98459.31;8351353;28;20247;-59
2022/03/02 13:23:11;;;;;;;14.17;10.97;;;;;;;11.02;28.84;98457.53;8351239;28;20549;-59
2022/03/02 13:27:16;;;;;;;16.27;11.50;;;;;;;10.13;29.18;98453.84;8349717;28;20232;-59
2022/03/02 13:31:20;;;;;;;12.83;8.60;;;;;;;10.56;28.92;98445.38;8350833;28;20232;-59
2022/03/02 13:35:24;;;;;;;16.10;10.50;;;;;;;10.10;29.65;98439.25;8351510;28;20313;-59
2022/03/02 13:39:30;;;;;;;11.27;8.57;;;;;;;10.45;28.56;98438.91;8351981;28;20543;-62
2022/03/02 13:43:37;;;;;;;17.00;9.90;;;;;;;10.68;28.32;98433.75;8350298;28;20228;-62
2022/03/02 13:47:41;;;;;;;16.50;9.60;;;;;;;10.62;27.88;98436.56;8351168;28;20247;-59
2022/03/02 13:51:49;;;;;;;10.83;8.90;;;;;;;10.03;28.02;98423.97;8350983;28;20228;-60
2022/03/02 13:56:04;;;;;;;11.80;8.13;;;;;;;10.64;27.86;98418.38;8350856;28;20400;-59
2022/03/02 14:00:27;;;;;;;13.43;9.20;;;;;;;10.79;27.24;98411.78;8350637;28;20228;-59
2022/03/02 14:04:33;;;;;;;12.57;8.97;;;;;;;10.93;27.72;98401.75;8348552;28;20504;-59
2022/03/02 14:08:45;;;;;;;13.80;9.23;;;;;;;11.10;27.23;98399.31;8349971;28;20239;-57
2022/03/02 14:12:49;;;;;;;10.90;8.67;;;;;;;11.02;27.80;98403.09;8350187;28;20293;-57
2022/03/02 14:16:58;;;;;;;11.57;9.47;;;;;;;10.98;27.09;98404.97;8350116;28;20511;-60
2022/03/02 14:21:11;;;;;;;11.47;9.40;;;;;;;10.81;27.63;98399.59;8350167;28;20543;-58
2022/03/02 14:25:14;;;;;;;14.97;11.10;;;;;;;10.83;27.38;98396.03;8350100;28;20254;-58
2022/03/02 14:29:19;;;;;;;11.83;8.87;;;;;;;10.86;27.82;98397.69;8349976;28;20563;-58
2022/03/02 14:33:24;;;;;;;11.40;8.50;;;;;;;10.84;27.51;98389.13;8349861;28;20232;-57
2022/03/02 14:37:31;;;;;;;13.70;9.20;;;;;;;10.90;27.88;98391.47;8349948;28;20234;-58
2022/03/02 14:41:34;;;;;;;11.67;8.63;;;;;;;11.08;28.04;98392.50;8349211;28;20224;-58
2022/03/02 14:45:38;;;;;;;16.20;8.70;;;;;;;11.47;26.86;98389.22;8349454;28;20247;-60
2022/03/02 14:49:41;;;;;;;11.43;8.77;;;;;;;11.70;26.57;98377.88;8349343;28;20239;-60
2022/03/02 14:53:46;;;;;;;12.20;9.10;;;;;;;11.71;26.22;98380.41;8349012;28;20255;-58
2022/03/02 14:57:49;;;;;;;13.53;10.73;;;;;;;11.62;25.87;98379.97;8349152;28;20240;-57
2022/03/02 15:01:52;;;;;;;11.63;8.37;;;;;;;11.90;25.18;98374.47;8349144;28;20232;-58
2022/03/02 15:06:04;;;;;;;12.83;8.50;;;;;;;11.71;25.48;98379.56;8349116;28;20417;-58
2022/03/02 15:10:10;;;;;;;11.10;8.10;;;;;;;11.59;25.35;98380.06;8348588;28;20250;-57
2022/03/02 15:18:37;;;;;;;11.57;8.43;;;;;;;11.49;25.58;98382.22;8347889;28;20223;-57
2022/03/02 15:22:41;;;;;;;11.57;7.93;;;;;;;11.61;25.29;98371.31;8348336;28;20236;-59
2022/03/02 15:26:50;;;;;;;12.30;8.50;;;;;;;11.69;25.79;98371.84;8348141;28;20236;-58
2022/03/02 15:30:58;;;;;;;11.23;8.77;;;;;;;11.51;25.58;98370.84;8348231;28;20413;-58
2022/03/02 15:35:02;;;;;;;8.87;7.37;;;;;;;11.13;24.28;98355.13;8347753;28;20299;-57
2022/03/02 15:39:05;;;;;;;13.30;7.80;;;;;;;11.39;25.12;98352.38;8347541;28;20561;-58
2022/03/02 15:43:13;;;;;;;13.60;8.70;;;;;;;11.15;24.70;98352.47;8347741;28;20239;-58
2022/03/02 15:47:26;;;;;;;8.97;6.60;;;;;;;11.35;25.04;98349.06;8347125;28;20549;-58
2022/03/02 15:51:29;;;;;;;9.37;6.80;;;;;;;11.21;24.71;98336.66;8346871;28;20239;-60
2022/03/02 15:55:37;;;;;;;9.67;7.63;;;;;;;10.66;24.28;98339.72;8347238;28;20235;-64
2022/03/02 15:59:41;;;;;;;8.43;7.23;;;;;;;10.78;24.95;98340.16;8347525;28;20239;-63
2022/03/02 16:03:53;;;;;;;10.63;7.57;;;;;;;10.84;24.91;98345.91;8346879;28;20263;-63
2022/03/02 16:08:07;;;;;;;10.87;7.97;;;;;;;10.72;24.79;98343.81;8352252;28;20239;-63
2022/03/02 16:12:10;;;;;;;9.73;7.67;;;;;;;10.86;26.27;98343.28;8353861;28;20228;-64
2022/03/02 16:16:17;;;;;;;12.27;8.50;;;;;;;10.79;25.57;98350.44;8353389;28;20223;-63
2022/03/02 16:20:22;;;;;;;9.77;7.53;;;;;;;10.83;27.24;98343.38;8353302;28;20297;-63
2022/03/02 16:24:27;;;;;;;11.73;7.50;;;;;;;10.77;28.52;98352.25;8353244;28;20243;-64
2022/03/02 16:28:35;;;;;;;8.90;7.50;;;;;;;10.74;28.63;98350.63;8350291;28;20240;-64
2022/03/02 16:32:40;;;;;;;16.17;9.10;;;;;;;10.67;28.90;98356.09;8352457;28;20220;-64
2022/03/02 16:36:46;;;;;;;12.77;9.43;;;;;;;10.66;29.10;98354.41;8352803;28;20234;-65
2022/03/02 16:40:51;;;;;;;12.50;9.30;;;;;;;10.62;29.79;98345.91;8351607;28;20528;-64
2022/03/02 16:44:54;;;;;;;14.77;10.43;;;;;;;10.49;30.22;98342.97;8352239;28;20232;-64
2022/03/02 16:48:59;;;;;;;17.20;10.80;;;;;;;10.46;30.46;98348.25;8351696;28;20259;-64
2022/03/02 16:53:03;;;;;;;29.50;13.67;;;;;;;10.48;31.34;98348.19;8349577;28;20224;-64
2022/03/02 16:57:23;;;;;;;17.57;14.17;;;;;;;10.36;31.31;98342.56;8349193;28;20224;-64
2022/03/02 17:01:26;;;;;;;22.57;13.93;;;;;;;10.27;31.71;98344.63;8351802;28;20252;-64
2022/03/02 17:05:31;;;;;;;19.50;11.13;;;;;;;10.16;31.58;98353.63;8351542;28;20547;-65
2022/03/02 17:09:34;;;;;;;15.60;10.70;;;;;;;10.02;32.16;98357.63;8351000;28;20409;-61
2022/03/02 17:13:37;;;;;;;20.13;12.27;;;;;;;9.96;32.71;98358.69;8351459;28;20228;-60
2022/03/02 17:17:41;;;;;;;19.17;13.57;;;;;;;9.86;33.17;98363.34;8350714;28;20243;-60
2022/03/02 17:21:46;;;;;;;17.70;12.80;;;;;;;9.71;33.85;98363.84;8352207;28;20232;-59
2022/03/02 17:25:49;;;;;;;17.73;12.60;;;;;;;9.63;34.52;98368.44;8352174;28;20246;-60
2022/03/02 17:29:52;;;;;;;20.13;13.60;;;;;;;9.54;34.87;98362.69;8351767;28;20231;-60
2022/03/02 17:33:55;;;;;;;17.97;13.67;;;;;;;9.45;34.43;98373.34;8350822;28;20305;-59
2022/03/02 17:38:00;;;;;;;20.73;15.17;;;;;;;9.29;35.61;98364.41;8351359;28;20426;-59
2022/03/02 17:42:03;;;;;;;28.07;22.47;;;;;;;9.24;36.08;98363.72;8351325;28;20228;-59
2022/03/02 17:46:07;;;;;;;35.43;28.23;;;;;;;9.10;35.45;98357.25;8351380;28;20239;-60
2022/03/02 17:50:10;;;;;;;39.53;26.70;;;;;;;9.05;35.42;98366.88;8350978;28;20228;-59
2022/03/02 17:54:16;;;;;;;31.73;22.47;;;;;;;9.05;36.16;98374.63;8351045;28;20546;-59
2022/03/02 17:58:19;;;;;;;29.17;18.00;;;;;;;8.88;36.18;98367.41;8351235;28;20535;-59
2022/03/02 18:02:23;;;;;;;18.13;12.97;;;;;;;8.82;35.67;98362.44;8350434;28;20507;-59
2022/03/02 18:06:27;;;;;;;18.37;13.90;;;;;;;8.69;35.94;98361.97;8350597;28;20232;-59
2022/03/02 18:10:31;;;;;;;21.90;15.90;;;;;;;8.63;35.98;98364.75;8350524;28;20228;-59
2022/03/02 18:14:34;;;;;;;17.73;14.30;;;;;;;8.60;36.14;98354.50;8349642;28;20331;-59
2022/03/02 18:18:37;;;;;;;21.67;13.23;;;;;;;8.47;36.58;98355.75;8349915;28;20263;-59
2022/03/02 18:22:41;;;;;;;17.00;12.83;;;;;;;8.44;36.63;98353.28;8349938;28;20231;-60
2022/03/02 18:26:50;;;;;;;21.67;17.10;;;;;;;8.26;37.14;98352.88;8349281;28;20238;-60
2022/03/02 18:30:53;;;;;;;20.47;15.53;;;;;;;8.16;37.56;98354.88;8346557;28;20228;-59
2022/03/02 18:34:58;;;;;;;17.70;14.10;;;;;;;8.14;37.88;98348.91;8348960;28;20274;-60
2022/03/02 18:39:05;;;;;;;19.60;16.13;;;;;;;8.04;38.00;98347.50;8346532;28;20224;-59
2022/03/02 18:43:10;;;;;;;23.57;16.30;;;;;;;7.91;38.09;98352.13;8348635;28;20243;-59
2022/03/02 18:47:14;;;;;;;24.43;18.37;;;;;;;7.84;38.86;98340.28;8348425;28;20230;-59
2022/03/02 18:51:17;;;;;;;24.80;19.77;;;;;;;7.75;39.46;98341.41;8348407;28;20226;-60
2022/03/02 18:55:20;;;;;;;20.63;17.60;;;;;;;7.73;39.20;98334.59;8348349;28;20228;-59
2022/03/02 18:59:25;;;;;;;22.97;17.83;;;;;;;7.68;39.76;98336.47;8349092;28;20228;-59
2022/03/02 19:03:29;;;;;;;22.73;16.73;;;;;;;7.57;39.52;98337.56;8348802;28;20234;-59